createdAt,value
2018-09-05T00:02:13.442Z,78.47
2018-09-05T00:04:41.317Z,78.69
2018-09-05T00:07:08.977Z,79.26
2018-09-05T00:09:36.672Z,78.71
2018-09-05T00:12:04.404Z,78.81
2018-09-05T00:14:32.093Z,79.01
2018-09-05T00:16:59.734Z,78.83
2018-09-05T00:19:27.442Z,78.98
2018-09-05T00:21:55.151Z,78.76
2018-09-05T00:24:22.924Z,79.06
2018-09-05T00:26:50.597Z,78.60
2018-09-05T00:29:18.328Z,79.04
2018-09-05T00:31:46.041Z,79.10
2018-09-05T00:34:13.709Z,78.98
2018-09-05T00:36:41.364Z,79.05
2018-09-05T00:39:09.532Z,78.51
2018-09-05T00:41:37.511Z,78.72
2018-09-05T00:44:05.268Z,78.57
2018-09-05T00:46:33.024Z,78.61
2018-09-05T00:49:01.197Z,78.39
2018-09-05T00:51:28.955Z,79.09
2018-09-05T00:53:56.601Z,79.00
2018-09-05T00:56:24.274Z,78.86
2018-09-05T00:58:51.946Z,79.09
2018-09-05T01:01:19.631Z,79.19
2018-09-05T01:03:47.324Z,78.74
2018-09-05T01:06:15.011Z,78.87
2018-09-05T01:08:42.769Z,78.73
2018-09-05T01:11:10.427Z,78.82
2018-09-05T01:13:38.113Z,79.11
2018-09-05T01:16:05.833Z,78.78
2018-09-05T01:18:33.505Z,78.84
2018-09-05T01:21:01.240Z,78.87
2018-09-05T01:23:28.905Z,78.40
2018-09-05T01:25:56.601Z,78.58
2018-09-05T01:28:24.273Z,78.47
2018-09-05T01:30:51.925Z,78.71
2018-09-05T01:33:19.753Z,78.64
2018-09-05T01:35:47.430Z,78.83
2018-09-05T01:38:15.120Z,78.51
2018-09-05T01:40:42.798Z,78.48
2018-09-05T01:43:10.502Z,78.72
2018-09-05T01:45:38.182Z,78.48
2018-09-05T01:48:05.857Z,78.41
2018-09-05T01:50:39.113Z,78.44
2018-09-05T01:53:06.765Z,78.26
2018-09-05T01:55:34.421Z,78.12
2018-09-05T01:58:02.095Z,78.45
2018-09-05T02:00:32.566Z,78.30
2018-09-05T02:03:00.314Z,78.49
2018-09-05T02:05:28.054Z,78.30
2018-09-05T02:07:55.730Z,78.60
2018-09-05T02:10:23.504Z,78.46
2018-09-05T02:12:51.198Z,78.33
2018-09-05T02:15:18.861Z,78.54
2018-09-05T02:17:46.531Z,78.22
2018-09-05T02:20:14.194Z,77.88
2018-09-05T02:22:41.868Z,78.31
2018-09-05T02:25:09.547Z,78.27
2018-09-05T02:27:37.199Z,78.31
2018-09-05T02:30:05.212Z,78.13
2018-09-05T02:32:32.894Z,78.13
2018-09-05T02:35:00.562Z,78.03
2018-09-05T02:37:28.315Z,78.07
2018-09-05T02:39:55.950Z,77.87
2018-09-05T02:42:23.670Z,77.90
2018-09-05T02:44:51.389Z,78.05
2018-09-05T02:47:19.069Z,77.89
2018-09-05T02:49:46.733Z,78.26
2018-09-05T02:52:14.386Z,77.91
2018-09-05T02:54:42.047Z,78.00
2018-09-05T02:57:09.750Z,77.84
2018-09-05T02:59:37.490Z,77.95
2018-09-05T03:02:05.241Z,78.11
2018-09-05T03:04:33.010Z,78.20
2018-09-05T03:07:00.692Z,77.88
2018-09-05T03:09:28.476Z,77.73
2018-09-05T03:11:56.130Z,77.88
2018-09-05T03:14:23.825Z,78.01
2018-09-05T03:16:51.633Z,78.16
2018-09-05T03:19:19.352Z,78.16
2018-09-05T03:21:47.116Z,77.82
2018-09-05T03:24:14.829Z,77.90
2018-09-05T03:26:42.553Z,77.86
2018-09-05T03:29:10.266Z,77.79
2018-09-05T03:31:37.957Z,78.03
2018-09-05T03:34:05.692Z,77.77
2018-09-05T03:36:33.387Z,77.58
2018-09-05T03:39:01.180Z,77.74
2018-09-05T03:41:28.904Z,77.69
2018-09-05T03:43:56.631Z,77.28
2018-09-05T03:46:24.398Z,77.02
2018-09-05T03:48:52.093Z,77.25
2018-09-05T03:51:19.790Z,77.11
2018-09-05T03:53:47.506Z,77.01
2018-09-05T03:56:15.325Z,77.19
2018-09-05T03:58:43.034Z,76.96
2018-09-05T04:01:10.828Z,77.28
2018-09-05T04:03:38.637Z,77.45
2018-09-05T04:06:06.390Z,77.42
2018-09-05T04:08:34.085Z,77.11
2018-09-05T04:11:01.829Z,77.22
2018-09-05T04:13:29.541Z,77.10
2018-09-05T04:15:57.258Z,77.13
2018-09-05T04:18:24.987Z,77.21
2018-09-05T04:20:52.728Z,77.15
2018-09-05T04:23:20.442Z,76.73
2018-09-05T04:25:48.161Z,77.43
2018-09-05T04:28:15.857Z,77.24
2018-09-05T04:30:43.584Z,76.93
2018-09-05T04:33:11.332Z,76.92
2018-09-05T04:35:39.042Z,77.19
2018-09-05T04:38:06.772Z,77.13
2018-09-05T04:40:34.501Z,76.88
2018-09-05T04:43:02.237Z,76.97
2018-09-05T04:45:30.091Z,77.03
2018-09-05T04:47:57.872Z,76.95
2018-09-05T04:50:25.693Z,77.37
2018-09-05T04:52:53.335Z,77.11
2018-09-05T04:55:21.069Z,77.24
2018-09-05T04:57:48.773Z,76.85
2018-09-05T05:00:16.505Z,76.68
2018-09-05T05:02:44.287Z,76.79
2018-09-05T05:05:12.005Z,76.79
2018-09-05T05:07:39.718Z,77.07
2018-09-05T05:10:07.431Z,76.96
2018-09-05T05:12:35.205Z,76.84
2018-09-05T05:15:02.899Z,76.45
2018-09-05T05:17:30.572Z,76.69
2018-09-05T05:19:58.299Z,76.69
2018-09-05T05:22:26.020Z,76.24
2018-09-05T05:24:53.728Z,76.72
2018-09-05T05:27:21.447Z,76.37
2018-09-05T05:29:49.167Z,76.26
2018-09-05T05:32:16.877Z,76.57
2018-09-05T05:34:44.676Z,76.59
2018-09-05T05:37:12.397Z,76.47
2018-09-05T05:39:40.082Z,76.00
2018-09-05T05:42:07.766Z,76.61
2018-09-05T05:44:35.556Z,76.14
2018-09-05T05:47:03.289Z,75.65
2018-09-05T05:49:31.048Z,76.11
2018-09-05T05:52:00.262Z,75.96
2018-09-05T05:54:29.248Z,75.93
2018-09-05T05:56:58.770Z,76.16
2018-09-05T05:59:27.402Z,75.96
2018-09-05T06:01:56.814Z,75.51
2018-09-05T06:04:26.134Z,75.76
2018-09-05T06:07:02.296Z,75.43
2018-09-05T06:09:30.493Z,75.56
2018-09-05T06:12:00.820Z,75.58
2018-09-05T06:14:37.483Z,75.24
2018-09-05T06:17:06.973Z,75.27
2018-09-05T06:19:36.517Z,75.10
2018-09-05T06:22:04.395Z,75.34
2018-09-05T06:24:35.103Z,75.32
2018-09-05T06:27:09.118Z,75.05
2018-09-05T06:29:38.102Z,74.92
2018-09-05T06:32:07.282Z,75.12
2018-09-05T06:34:36.509Z,75.13
2018-09-05T06:37:05.501Z,75.06
2018-09-05T06:39:34.181Z,74.92
2018-09-05T06:42:04.248Z,75.33
2018-09-05T06:44:33.426Z,74.78
2018-09-05T06:47:02.612Z,73.90
2018-09-05T06:49:31.615Z,74.81
2018-09-05T06:52:00.087Z,74.85
2018-09-05T06:54:28.963Z,74.74
2018-09-05T06:56:57.630Z,74.78
2018-09-05T06:59:29.118Z,74.92
2018-09-05T07:01:57.709Z,74.63
2018-09-05T07:04:27.196Z,74.74
2018-09-05T07:06:56.914Z,74.54
2018-09-05T07:09:26.192Z,74.43
2018-09-05T07:11:57.818Z,74.54
2018-09-05T07:14:27.488Z,74.68
2018-09-05T07:16:55.964Z,74.36
2018-09-05T07:19:25.064Z,73.74
2018-09-05T07:21:54.015Z,73.93
2018-09-05T07:24:24.625Z,73.98
2018-09-05T07:26:53.480Z,74.00
2018-09-05T07:29:22.111Z,74.00
2018-09-05T07:31:50.456Z,73.27
2018-09-05T07:34:19.068Z,73.68
2018-09-05T07:36:48.986Z,73.13
2018-09-05T07:39:19.296Z,73.71
2018-09-05T07:41:47.909Z,73.52
2018-09-05T07:44:16.513Z,73.46
2018-09-05T07:46:45.210Z,72.95
2018-09-05T07:49:13.883Z,72.59
2018-09-05T07:51:43.940Z,73.23
2018-09-05T07:54:11.622Z,73.23
2018-09-05T07:56:39.355Z,73.00
2018-09-05T07:59:07.162Z,73.22
2018-09-05T08:01:35.025Z,73.54
2018-09-05T08:04:02.871Z,71.89
2018-09-05T08:06:30.619Z,73.02
2018-09-05T08:08:58.304Z,72.34
2018-09-05T08:11:26.037Z,72.76
2018-09-05T08:13:53.719Z,72.66
2018-09-05T08:16:21.538Z,72.55
2018-09-05T08:18:49.214Z,72.25
2018-09-05T08:21:17.032Z,72.13
2018-09-05T08:23:44.934Z,72.47
2018-09-05T08:26:12.637Z,72.44
2018-09-05T08:28:40.327Z,72.23
2018-09-05T08:31:08.024Z,72.47
2018-09-05T08:33:35.706Z,72.04
2018-09-05T08:36:03.818Z,70.90
2018-09-05T08:38:31.265Z,70.87
2018-09-05T08:41:03.439Z,71.46
2018-09-05T08:43:31.529Z,70.00
2018-09-05T08:45:59.348Z,68.95
2018-09-05T08:48:27.110Z,70.11
2018-09-05T08:50:54.735Z,70.45
2018-09-05T08:53:22.538Z,70.06
2018-09-05T08:55:50.171Z,70.15
2018-09-05T08:58:17.865Z,69.67
2018-09-05T09:00:45.553Z,69.29
2018-09-05T09:03:13.217Z,67.43
2018-09-05T09:05:40.898Z,68.84
2018-09-05T09:08:08.694Z,68.42
2018-09-05T09:10:36.376Z,69.19
2018-09-05T09:13:04.085Z,68.58
2018-09-05T09:15:31.921Z,68.36
2018-09-05T09:17:59.665Z,67.54
2018-09-05T09:20:27.360Z,68.50
2018-09-05T09:22:55.007Z,68.53
2018-09-05T09:25:22.680Z,67.48
2018-09-05T09:27:50.434Z,68.14
2018-09-05T09:30:18.411Z,67.86
2018-09-05T09:32:46.094Z,67.83
2018-09-05T09:35:13.797Z,67.99
2018-09-05T09:37:41.484Z,67.83
2018-09-05T09:40:09.448Z,67.51
2018-09-05T09:42:37.199Z,67.42
2018-09-05T09:45:08.540Z,67.53
2018-09-05T09:47:37.733Z,65.87
2018-09-05T09:50:06.232Z,67.18
2018-09-05T09:52:39.322Z,66.69
2018-09-05T09:55:07.904Z,65.82
2018-09-05T09:57:35.981Z,66.84
2018-09-05T10:00:04.105Z,66.88
2018-09-05T10:02:37.237Z,66.52
2018-09-05T10:05:10.714Z,66.14
2018-09-05T10:07:43.961Z,65.87
2018-09-05T10:11:17.788Z,66.45
2018-09-05T10:13:51.048Z,65.84
2018-09-05T10:16:24.665Z,65.68
2018-09-05T10:18:53.541Z,65.01
2018-09-05T10:21:21.428Z,64.46
2018-09-05T10:23:49.422Z,65.70
2018-09-05T10:26:17.092Z,65.44
2018-09-05T10:28:44.777Z,65.79
2018-09-05T10:31:12.505Z,65.68
2018-09-05T10:33:40.211Z,65.11
2018-09-05T10:36:07.872Z,65.73
2018-09-05T10:38:35.586Z,65.69
2018-09-05T10:41:03.272Z,65.25
2018-09-05T10:43:30.970Z,65.49
2018-09-05T10:45:58.659Z,64.92
2018-09-05T10:48:26.408Z,65.09
2018-09-05T10:50:54.374Z,65.27
2018-09-05T10:53:22.065Z,64.97
2018-09-05T10:55:49.756Z,65.01
2018-09-05T10:58:17.557Z,64.78
2018-09-05T11:00:45.198Z,65.45
2018-09-05T11:03:12.878Z,65.58
2018-09-05T11:05:40.545Z,64.99
2018-09-05T11:08:08.238Z,65.23
2018-09-05T11:10:36.226Z,65.31
2018-09-05T11:13:03.808Z,65.17
2018-09-05T11:15:31.492Z,64.90
2018-09-05T11:17:59.149Z,64.92
2018-09-05T11:20:26.926Z,65.24
2018-09-05T11:22:54.608Z,64.62
2018-09-05T11:25:22.303Z,65.14
2018-09-05T11:27:50.055Z,65.38
2018-09-05T11:30:17.705Z,65.10
2018-09-05T11:32:45.429Z,65.07
2018-09-05T11:35:13.149Z,65.08
2018-09-05T11:37:40.878Z,64.91
2018-09-05T11:40:09.321Z,65.05
2018-09-05T11:42:37.004Z,65.09
2018-09-05T11:45:04.723Z,64.78
2018-09-05T11:47:32.447Z,65.00
2018-09-05T11:50:00.138Z,64.46
2018-09-05T11:52:27.828Z,64.00
2018-09-05T11:54:55.497Z,64.68
2018-09-05T11:57:23.203Z,64.00
2018-09-05T11:59:50.881Z,64.23
2018-09-05T12:02:18.766Z,64.24
2018-09-05T12:04:46.381Z,64.43
2018-09-05T12:07:14.092Z,63.68
2018-09-05T12:09:41.741Z,63.75
2018-09-05T12:12:24.391Z,61.54
2018-09-05T12:14:52.078Z,63.05
2018-09-05T12:17:19.813Z,63.16
2018-09-05T12:19:47.491Z,62.38
2018-09-05T12:22:15.190Z,62.72
2018-09-05T12:24:42.887Z,62.65
2018-09-05T12:27:10.574Z,62.38
2018-09-05T12:29:38.231Z,62.03
2018-09-05T12:32:05.996Z,61.66
2018-09-05T12:34:33.665Z,62.08
2018-09-05T12:37:01.337Z,61.63
2018-09-05T12:39:28.995Z,61.88
2018-09-05T12:41:56.666Z,61.80
2018-09-05T12:44:24.329Z,61.63
2018-09-05T12:46:52.769Z,61.50
2018-09-05T12:49:20.725Z,61.79
2018-09-05T12:51:48.405Z,61.68
2018-09-05T12:54:16.173Z,60.77
2018-09-05T12:56:43.853Z,61.23
2018-09-05T12:59:11.573Z,59.45
2018-09-05T13:01:39.289Z,61.21
2018-09-05T13:04:07.354Z,60.92
2018-09-05T13:06:36.214Z,60.86
2018-09-05T13:09:06.269Z,60.68
2018-09-05T13:11:33.942Z,60.75
2018-09-05T13:14:01.642Z,60.85
2018-09-05T13:16:29.338Z,60.06
2018-09-05T13:18:57.004Z,60.42
2018-09-05T13:21:24.717Z,59.63
2018-09-05T13:23:52.384Z,58.44
2018-09-05T13:26:20.091Z,57.79
2018-09-05T13:28:47.812Z,59.82
2018-09-05T13:31:15.477Z,58.81
2018-09-05T13:33:43.147Z,59.26
2018-09-05T13:36:10.967Z,59.77
2018-09-05T13:38:38.666Z,59.16
2018-09-05T13:41:06.350Z,58.71
2018-09-05T13:43:34.030Z,57.95
2018-09-05T13:46:01.962Z,59.94
2018-09-05T13:48:29.682Z,60.00
2018-09-05T13:50:57.446Z,59.46
2018-09-05T13:53:25.122Z,60.20
2018-09-05T13:55:52.783Z,60.27
2018-09-05T13:58:20.432Z,60.37
2018-09-05T14:00:48.091Z,60.33
2018-09-05T14:03:15.754Z,60.40
2018-09-05T14:05:43.476Z,59.87
2018-09-05T14:08:11.198Z,59.89
2018-09-05T14:10:38.868Z,59.64
2018-09-05T14:13:06.629Z,59.78
2018-09-05T14:15:34.349Z,59.51
2018-09-05T14:18:02.063Z,59.62
2018-09-05T14:20:29.865Z,58.70
2018-09-05T14:22:57.585Z,59.34
2018-09-05T14:25:25.259Z,59.45
2018-09-05T14:27:52.929Z,59.43
2018-09-05T14:30:20.605Z,59.79
2018-09-05T14:32:48.264Z,59.99
2018-09-05T14:35:15.938Z,59.06
2018-09-05T14:37:43.600Z,60.27
2018-09-05T14:40:11.349Z,60.49
2018-09-05T14:42:38.988Z,59.99
2018-09-05T14:45:06.675Z,60.51
2018-09-05T14:47:34.332Z,60.95
2018-09-05T14:50:02.023Z,61.16
2018-09-05T14:52:29.686Z,61.18
2018-09-05T14:54:57.385Z,60.84
2018-09-05T14:57:25.077Z,61.44
2018-09-05T14:59:52.898Z,61.09
2018-09-05T15:02:20.553Z,61.69
2018-09-05T15:04:48.247Z,61.81
2018-09-05T15:07:15.980Z,61.26
2018-09-05T15:09:43.666Z,61.80
2018-09-05T15:12:11.393Z,61.87
2018-09-05T15:14:39.058Z,61.96
2018-09-05T15:17:06.880Z,62.18
2018-09-05T15:19:34.602Z,62.69
2018-09-05T15:22:02.401Z,62.41
2018-09-05T15:24:30.171Z,62.79
2018-09-05T15:26:57.905Z,62.63
2018-09-05T15:29:25.614Z,62.52
2018-09-05T15:31:53.325Z,62.93
2018-09-05T15:34:21.046Z,62.84
2018-09-05T15:36:48.855Z,62.81
2018-09-05T15:39:16.617Z,63.10
2018-09-05T15:41:44.362Z,63.32
2018-09-05T15:44:12.065Z,63.79
2018-09-05T15:46:39.797Z,63.43
2018-09-05T15:49:07.634Z,63.20
2018-09-05T15:51:35.438Z,63.28
2018-09-05T15:54:03.383Z,63.43
2018-09-05T15:56:31.066Z,63.67
2018-09-05T15:58:58.875Z,63.42
2018-09-05T16:01:26.692Z,63.46
2018-09-05T16:03:54.422Z,63.58
2018-09-05T16:06:22.665Z,63.86
2018-09-05T16:08:51.314Z,63.80
2018-09-05T16:11:20.199Z,64.45
2018-09-05T16:13:48.370Z,64.66
2018-09-05T16:16:17.897Z,64.85
2018-09-05T16:18:46.192Z,64.64
2018-09-05T16:21:15.668Z,64.28
2018-09-05T16:23:43.393Z,64.52
2018-09-05T16:26:12.343Z,64.55
2018-09-05T16:28:40.579Z,64.68
2018-09-05T16:31:08.891Z,64.63
2018-09-05T16:33:36.677Z,64.59
2018-09-05T16:36:04.488Z,64.80
2018-09-05T16:38:32.188Z,64.75
2018-09-05T16:40:59.889Z,65.46
2018-09-05T16:43:27.639Z,65.46
2018-09-05T16:45:55.341Z,65.09
2018-09-05T16:48:23.061Z,65.64
2018-09-05T16:50:50.774Z,65.22
2018-09-05T16:53:18.463Z,65.71
2018-09-05T16:55:46.243Z,65.65
2018-09-05T16:58:13.977Z,65.73
2018-09-05T17:00:41.658Z,65.87
2018-09-05T17:03:09.336Z,65.86
2018-09-05T17:05:37.044Z,66.10
2018-09-05T17:08:04.784Z,66.32
2018-09-05T17:10:32.524Z,66.06
2018-09-05T17:13:00.223Z,65.90
2018-09-05T17:15:28.021Z,66.29
2018-09-05T17:17:56.103Z,66.54
2018-09-05T17:20:23.812Z,66.33
2018-09-05T17:22:51.638Z,67.02
2018-09-05T17:25:19.334Z,66.90
2018-09-05T17:27:47.017Z,66.87
2018-09-05T17:30:14.745Z,66.73
2018-09-05T17:32:42.458Z,67.10
2018-09-05T17:35:10.189Z,67.97
2018-09-05T17:37:37.894Z,67.40
2018-09-05T17:40:05.694Z,68.04
2018-09-05T17:42:33.373Z,68.34
2018-09-05T17:45:01.170Z,68.22
2018-09-05T17:47:28.878Z,68.12
2018-09-05T17:49:56.695Z,68.77
2018-09-05T17:52:24.418Z,68.19
2018-09-05T17:54:52.123Z,69.33
2018-09-05T17:57:19.834Z,68.71
2018-09-05T17:59:47.549Z,68.98
2018-09-05T18:02:15.236Z,69.72
2018-09-05T18:04:42.942Z,69.67
2018-09-05T18:07:10.692Z,69.59
2018-09-05T18:09:38.396Z,68.93
2018-09-05T18:12:06.499Z,69.16
2018-09-05T18:14:34.306Z,69.38
2018-09-05T18:17:02.078Z,68.98
2018-09-05T18:19:29.759Z,69.90
2018-09-05T18:21:57.425Z,70.47
2018-09-05T18:24:25.210Z,70.03
2018-09-05T18:26:52.893Z,69.64
2018-09-05T18:29:20.766Z,70.35
2018-09-05T18:31:48.442Z,70.40
2018-09-05T18:34:16.126Z,69.50
2018-09-05T18:36:43.840Z,70.06
2018-09-05T18:39:11.582Z,70.00
2018-09-05T18:41:39.385Z,69.36
2018-09-05T18:44:07.138Z,69.39
2018-09-05T18:46:34.906Z,69.29
2018-09-05T18:49:02.602Z,69.56
2018-09-05T18:51:30.451Z,69.41
2018-09-05T18:53:58.152Z,70.33
2018-09-05T18:56:25.916Z,69.63
2018-09-05T18:58:53.717Z,69.65
2018-09-05T19:01:21.460Z,69.87
2018-09-05T19:03:49.206Z,69.59
2018-09-05T19:06:16.942Z,70.39
2018-09-05T19:08:44.649Z,69.62
2018-09-05T19:11:12.356Z,70.79
2018-09-05T19:13:40.075Z,70.05
2018-09-05T19:16:07.777Z,70.09
2018-09-05T19:18:35.517Z,70.27
2018-09-05T19:21:03.285Z,70.19
2018-09-05T19:23:31.465Z,70.28
2018-09-05T19:25:59.200Z,70.40
2018-09-05T19:28:26.944Z,70.28
2018-09-05T19:30:54.738Z,70.13
2018-09-05T19:33:22.449Z,69.75
2018-09-05T19:35:50.433Z,69.95
2018-09-05T19:38:18.460Z,69.85
2018-09-05T19:40:46.212Z,69.90
2018-09-05T19:43:13.932Z,70.38
2018-09-05T19:45:41.638Z,69.79
2018-09-05T19:48:09.302Z,70.63
2018-09-05T19:50:36.962Z,72.28
2018-09-05T19:53:04.666Z,71.03
2018-09-05T19:55:32.353Z,72.01
2018-09-05T19:58:00.082Z,72.08
2018-09-05T20:00:27.734Z,71.20
2018-09-05T20:02:55.462Z,70.94
2018-09-05T20:05:23.148Z,70.57
2018-09-05T20:07:50.817Z,70.80
2018-09-05T20:10:18.482Z,71.91
2018-09-05T20:12:46.137Z,70.87
2018-09-05T20:15:13.818Z,70.91
2018-09-05T20:17:41.532Z,71.16
2018-09-05T20:20:09.201Z,71.72
2018-09-05T20:22:36.858Z,72.58
2018-09-05T20:25:04.595Z,71.91
2018-09-05T20:27:32.302Z,73.00
2018-09-05T20:29:59.992Z,72.23
2018-09-05T20:32:27.653Z,72.65
2018-09-05T20:34:55.366Z,72.45
2018-09-05T20:37:23.025Z,72.20
2018-09-05T20:39:50.761Z,71.84
2018-09-05T20:42:18.427Z,71.79
2018-09-05T20:44:46.093Z,72.46
2018-09-05T20:47:13.768Z,72.62
2018-09-05T20:49:41.536Z,71.99
2018-09-05T20:52:09.208Z,72.03
2018-09-05T20:54:36.861Z,71.87
2018-09-05T20:57:04.644Z,73.13
2018-09-05T20:59:32.287Z,72.16
2018-09-05T21:02:00.005Z,73.37
2018-09-05T21:04:27.730Z,73.35
2018-09-05T21:06:55.646Z,72.35
2018-09-05T21:09:23.323Z,72.37
2018-09-05T21:11:51.857Z,72.09
2018-09-05T21:14:19.532Z,71.92
2018-09-05T21:16:47.248Z,72.69
2018-09-05T21:19:14.912Z,74.04
2018-09-05T21:21:42.567Z,74.07
2018-09-05T21:24:10.217Z,74.20
2018-09-05T21:26:37.948Z,74.29
2018-09-05T21:29:05.617Z,75.27
2018-09-05T21:31:33.276Z,75.66
2018-09-05T21:34:00.924Z,75.78
2018-09-05T21:36:28.601Z,74.35
2018-09-05T21:38:56.251Z,76.21
2018-09-05T21:41:23.918Z,76.45
2018-09-05T21:43:51.577Z,76.61
2018-09-05T21:46:19.245Z,75.85
2018-09-05T21:48:46.924Z,76.66
2018-09-05T21:51:14.590Z,76.19
2018-09-05T21:53:42.262Z,75.77
2018-09-05T21:56:09.920Z,76.26
2018-09-05T21:58:37.602Z,76.51
2018-09-05T22:01:05.294Z,77.15
2018-09-05T22:03:32.969Z,76.86
2018-09-05T22:06:00.628Z,76.63
2018-09-05T22:08:28.311Z,76.15
2018-09-05T22:10:57.666Z,75.62
2018-09-05T22:13:25.373Z,75.14
2018-09-05T22:15:53.023Z,75.30
2018-09-05T22:18:20.689Z,76.20
2018-09-05T22:20:48.346Z,76.49
2018-09-05T22:23:15.992Z,75.43
2018-09-05T22:25:43.661Z,75.04
2018-09-05T22:28:11.318Z,76.37
2018-09-05T22:30:38.997Z,75.59
2018-09-05T22:33:06.989Z,75.12
2018-09-05T22:35:34.636Z,75.07
2018-09-05T22:38:02.326Z,74.39
2018-09-05T22:40:31.773Z,74.43
2018-09-05T22:43:11.322Z,75.20
2018-09-05T22:45:50.066Z,75.47
2018-09-05T22:48:34.345Z,74.85
2018-09-05T22:51:18.894Z,74.44
2018-09-05T22:54:10.106Z,75.61
2018-09-05T22:59:01.238Z,76.14
2018-09-05T23:02:47.278Z,76.83
2018-09-05T23:06:24.356Z,75.77
2018-09-05T23:08:52.026Z,75.27
2018-09-05T23:11:37.573Z,76.59
2018-09-05T23:14:16.368Z,75.20
2018-09-05T23:17:53.547Z,75.46
2018-09-05T23:20:30.196Z,74.93
2018-09-05T23:24:10.113Z,75.58
2018-09-05T23:26:37.928Z,76.54
2018-09-05T23:29:05.622Z,77.15
2018-09-05T23:31:33.317Z,76.36
2018-09-05T23:34:00.986Z,75.83
2018-09-05T23:36:28.689Z,76.97
2018-09-05T23:38:56.362Z,76.65
2018-09-05T23:41:24.037Z,77.26
2018-09-05T23:43:51.737Z,76.00
2018-09-05T23:46:19.436Z,76.30
2018-09-05T23:48:47.160Z,78.03
2018-09-05T23:51:14.886Z,78.69
2018-09-05T23:53:42.565Z,77.83
2018-09-05T23:56:10.254Z,77.86
2018-09-05T23:58:37.940Z,78.29
